Date,TemperatureHighF,TemperatureAvgF,TemperatureLowF,DewpointHighF,DewpointAvgF,DewpointLowF,HumidityHigh,HumidityAvg,HumidityLow,PressureMaxIn,PressureMinIn,WindSpeedMaxMPH,WindSpeedAvgMPH,GustSpeedMaxMPH,PrecipitationSumIn
2014-1-1,2.9,-6.6,-16.0,-999.9,-999.9,-999.9,87,81,71,30.64,30.53,6,0,8,0.00
2014-1-2,5.2,-4.8,-14.7,-999.9,-999.9,-999.9,88,80,68,30.55,30.50,6,0,8,0.00
2014-1-3,15.2,-0.7,-16.5,-999.9,-999.9,-999.9,95,82,74,30.51,29.68,9,2,16,0.00
2014-1-4,21.3,12.6,0.2,20.1,9.9,-2.7,100,88,79,30.17,29.61,6,1,8,0.00
2014-1-5,0.2,-7.2,-16.7,99.9,98.2,-2.6,92,81,71,30.34,30.17,4,0,6,0.00
2014-1-6,-16.3,-20.1,-26.2,99.9,94.0,-64.6,92,77,70,30.20,30.14,6,1,7,0.00
2014-1-7,-4.3,-15.4,-24.1,99.9,99.9,99.9,84,79,73,30.38,30.14,6,0,8,0.00
2014-1-8,2.0,-11.7,-23.7,99.9,86.8,-5.4,86,80,73,30.64,30.38,5,0,5,0.00
2014-1-9,14.3,-3.9,-24.7,99.9,50.7,-3.3,94,78,63,30.63,30.19,7,1,8,0.00
2014-1-10,25.6,20.9,14.4,24.9,19.8,12.9,97,95,93,30.19,29.51,8,1,9,0.00
2014-1-11,27.2,25.5,24.4,26.1,24.4,22.9,97,96,93,29.66,29.44,5,0,6,0.00
2014-1-12,32.7,27.8,21.6,29.4,25.5,20.3,95,91,85,29.70,29.48,8,1,9,0.00
2014-1-13,30.3,27.4,22.0,28.8,24.0,16.3,96,87,76,29.68,29.48,7,0,8,0.00
2014-1-14,21.9,17.5,12.2,18.0,14.3,9.2,92,87,78,29.97,29.66,11,1,11,0.00
2014-1-15,12.9,9.7,4.6,10.0,6.2,0.9,94,85,81,30.05,29.56,9,1,11,0.00
2014-1-16,25.9,15.7,8.4,24.9,13.7,6.1,96,92,87,29.72,29.43,6,1,8,0.00
2014-1-17,17.4,13.3,8.8,15.1,10.6,6.2,94,89,83,29.99,29.71,6,0,6,0.00
2014-1-18,14.4,8.9,3.5,11.6,6.1,1.0,100,88,80,29.95,29.68,6,1,6,0.00
2014-1-19,26.7,19.3,6.2,24.1,17.2,3.6,100,91,86,29.73,29.47,7,1,7,0.00
2014-1-20,6.7,2.8,-2.0,99.9,26.8,-5.3,90,80,67,30.37,29.72,8,0,10,0.00
2014-1-21,3.3,-2.6,-6.5,99.9,71.8,-99.9,85,77,63,30.43,30.16,5,0,5,0.00
2014-1-22,3.1,-0.3,-3.3,99.9,55.8,-5.4,86,82,71,30.29,29.97,8,1,9,0.00
2014-1-23,3.3,-2.0,-11.0,99.9,61.2,-6.5,92,79,68,30.64,30.28,7,1,8,0.00
2014-1-24,21.3,8.1,-10.8,99.9,26.6,-6.0,100,87,72,30.31,29.38,8,2,8,0.00
2014-1-25,18.9,0.5,-11.5,99.9,36.0,-6.0,100,81,71,29.80,29.41,8,1,10,0.00
2014-1-26,4.5,-1.2,-7.7,99.9,62.9,-3.3,92,84,78,29.87,29.39,7,0,8,0.00
2014-1-27,-5.1,-10.1,-15.5,99.9,73.5,-99.9,85,76,67,30.36,29.86,7,1,9,0.00
2014-1-28,-3.1,-11.1,-21.6,99.9,54.4,-99.9,82,76,69,30.36,30.07,6,1,7,0.00
2014-1-29,20.6,5.0,-9.0,99.9,44.7,-6.5,92,72,58,30.09,29.74,6,1,9,0.00
2014-1-30,23.0,21.7,20.7,20.1,17.0,13.1,94,82,71,29.74,29.63,6,1,7,0.00
2014-2-2,10.6,4.2,-3.5,99.9,37.0,-4.1,85,75,66,30.34,30.26,3,0,4,0.00
2014-2-3,20.7,3.9,-17.1,99.9,44.9,-51.4,89,81,70,30.42,30.29,4,0,4,0.00
2014-2-4,18.5,4.9,-9.7,99.9,40.6,-3.3,98,79,63,30.53,30.41,4,0,5,0.01
2014-2-5,7.9,3.7,-0.9,99.9,3.9,-3.6,90,81,70,30.48,30.44,5,0,7,0.00
2014-2-6,6.9,-2.2,-9.6,99.9,67.5,-6.6,98,77,61,30.45,30.24,12,1,12,0.00
2014-2-7,13.0,1.0,-9.4,99.9,44.7,-6.7,85,72,55,30.28,30.14,6,1,9,0.00
2014-2-8,15.2,0.9,-15.4,99.9,46.9,-4.1,87,78,65,30.30,30.20,3,0,6,0.00
2014-2-9,12.4,1.5,-8.9,99.9,55.9,-5.3,88,79,65,30.36,30.20,6,0,6,0.00
2014-2-10,5.2,-4.5,-13.7,99.9,62.7,-48.1,89,75,61,30.56,30.36,7,0,8,0.00
2014-2-11,13.1,-2.1,-21.2,99.9,42.0,-6.2,83,71,56,30.58,30.28,7,1,8,0.00
2014-2-12,17.5,9.5,5.9,11.6,5.6,-0.8,92,84,68,30.28,30.01,7,1,7,0.00
2014-2-13,18.1,13.3,5.3,16.7,11.4,2.9,94,92,89,30.02,29.54,12,1,13,0.00
2014-2-14,14.6,6.9,-6.9,99.9,19.2,-3.1,91,85,80,30.07,29.63,6,1,8,0.00
2014-2-15,17.6,4.0,-13.7,99.9,45.9,-2.6,92,84,69,30.11,30.01,6,0,8,0.00
2014-2-16,18.1,10.7,-0.8,99.9,10.0,-2.6,92,83,70,30.33,30.07,8,1,9,0.00
2014-2-17,21.6,16.2,7.9,19.1,13.9,4.9,100,90,87,30.32,29.82,16,4,19,0.00
2014-2-18,35.2,24.0,12.8,28.1,20.8,10.7,95,88,72,29.86,29.63,8,0,9,0.00
2014-2-19,40.2,26.9,11.0,25.4,19.4,9.0,96,76,46,29.91,29.69,7,0,9,0.02
2014-2-20,36.9,30.5,25.1,31.4,26.4,20.1,98,85,58,29.92,28.96,23,4,30,0.01
2014-2-21,30.0,17.9,7.9,29.6,16.0,5.2,99,92,88,29.60,28.88,7,1,8,0.00
2014-2-22,16.3,9.1,4.7,11.4,5.7,1.3,89,85,80,30.01,29.60,8,1,9,0.01
2014-2-23,15.0,7.9,-0.1,99.9,6.1,-2.9,87,82,71,30.14,30.01,8,1,11,0.00
2014-2-24,13.1,6.2,-0.1,99.9,1.9,-3.3,87,79,67,30.28,30.13,7,1,10,0.00
2014-2-25,6.8,0.3,-5.5,99.9,49.7,-6.3,86,76,61,30.26,30.16,9,1,12,0.00
2014-2-26,7.3,-1.7,-12.1,99.9,31.5,-99.9,95,76,56,30.23,29.61,10,1,10,0.00
2014-2-27,-0.5,-6.8,-20.8,99.9,26.2,-99.9,92,72,57,30.28,29.76,7,1,8,0.00
2014-2-28,5.9,-4.6,-23.6,99.9,28.5,-99.9,94,77,49,30.28,30.10,11,1,12,0.00
2014-3-1,7.9,0.1,-8.3,99.9,17.7,-324.7,87,75,61,30.51,30.18,6,0,8,0.00
2014-3-2,6.9,-4.1,-15.0,99.9,-28.9,-412.4,77,58,35,30.57,30.46,8,0,10,0.00
2014-3-3,14.9,0.0,-23.1,99.9,31.2,-99.9,87,70,51,30.62,30.39,6,0,6,0.00
2014-3-4,18.9,10.1,1.7,9.6,4.3,-1.3,88,77,61,30.45,30.26,5,0,6,0.01
2014-3-5,19.7,7.0,-10.8,99.9,25.0,-6.0,89,63,32,30.64,30.45,9,1,11,0.00
2014-3-6,24.8,14.0,-1.6,99.9,18.8,-7.6,92,78,66,30.57,30.00,10,2,13,0.00
2014-3-7,28.6,23.8,18.2,26.3,20.6,13.4,94,87,80,30.20,29.88,6,1,7,0.00
2014-3-8,25.1,15.7,4.7,14.7,9.3,2.1,99,76,57,30.34,30.20,10,0,11,0.01
2014-3-9,37.5,22.9,2.2,29.4,17.7,-0.6,91,81,68,30.22,29.72,7,1,7,0.04
2014-3-10,54.9,38.3,23.3,38.1,28.0,22.1,98,71,33,29.72,29.53,8,0,9,0.19
2014-3-11,41.5,35.2,27.9,29.7,26.4,19.9,85,70,57,29.94,29.64,6,0,8,0.00
2014-3-12,27.6,13.6,1.8,20.6,2.3,-4.5,81,62,36,30.17,29.93,6,1,11,0.00
2014-3-13,34.6,20.3,-2.5,99.9,20.6,-4.6,89,77,71,30.15,29.63,5,1,5,0.00
2014-3-14,39.4,33.9,22.8,34.3,30.3,17.8,92,87,81,29.85,29.46,8,1,11,0.00
2014-3-15,24.0,17.3,2.3,17.7,8.6,-3.1,84,69,46,30.54,29.85,7,1,10,0.00
2014-3-16,22.5,8.7,-9.3,99.9,32.0,-4.6,87,63,36,30.60,30.23,7,0,7,0.00
2014-3-17,21.0,16.0,10.7,18.9,10.9,-0.3,98,80,58,30.23,29.84,15,3,20,0.00
2014-3-18,33.9,26.1,18.6,28.6,22.9,16.2,95,88,76,29.98,29.90,15,3,16,0.04
2014-3-19,34.1,28.3,24.2,31.1,26.3,22.5,96,92,87,29.92,29.74,11,1,12,0.13
2014-3-20,32.0,26.5,18.1,25.2,22.2,15.2,100,84,67,30.06,29.92,7,0,9,0.02
2014-3-21,37.1,25.1,8.9,29.7,20.7,6.1,97,84,61,30.06,29.81,14,1,14,0.01
2014-3-22,30.5,16.8,4.6,29.5,10.6,1.4,96,76,58,30.46,29.94,8,1,10,0.02
2014-3-23,19.4,7.8,-6.2,99.9,25.1,-4.3,88,72,52,30.53,30.43,6,0,8,0.00
2014-3-24,26.2,11.1,-8.3,99.9,40.8,-3.6,88,71,44,30.44,30.07,8,1,9,0.00
2014-3-25,15.1,10.7,4.0,10.0,2.9,-1.1,92,71,49,30.24,30.06,11,1,11,0.00
2014-3-26,25.8,14.8,-4.4,99.9,22.0,-3.5,89,70,54,30.30,29.96,13,2,14,0.00
2014-3-27,34.4,30.6,25.3,33.1,28.7,18.9,98,93,75,29.95,29.58,12,2,13,0.01
2014-3-28,34.2,28.3,23.1,28.8,24.6,21.4,97,87,67,30.30,29.62,6,0,12,0.13
2014-3-29,37.9,29.4,21.1,26.5,22.5,19.3,94,77,53,30.37,30.25,6,0,7,0.00
2014-3-30,45.8,36.4,25.2,33.1,27.5,18.9,84,70,56,30.27,30.00,12,2,14,0.00
2014-3-31,49.9,42.3,34.8,35.7,33.2,31.0,89,71,52,30.04,29.56,16,4,20,0.00
2014-4-1,45.3,29.8,21.7,35.7,24.4,14.2,91,80,63,30.07,29.46,11,2,13,0.00
2014-4-2,40.1,29.1,14.6,22.6,16.7,11.4,89,62,38,30.28,30.06,7,0,8,0.00
2014-4-3,35.5,29.0,23.1,27.6,20.3,14.0,95,70,54,30.27,29.88,19,4,19,0.00
2014-4-4,29.5,26.8,21.7,28.1,25.4,19.5,97,94,91,30.00,29.57,10,1,16,0.00
2014-4-5,40.9,28.3,7.8,31.5,22.2,5.6,95,79,58,30.19,30.00,5,0,5,0.81
2014-4-6,50.4,39.7,28.9,36.6,31.6,25.0,89,74,55,30.10,29.87,5,1,5,0.13
2014-4-7,54.4,41.9,30.1,42.3,34.8,29.1,98,78,46,29.90,29.70,7,0,7,0.00
2014-4-8,47.5,38.5,28.9,37.9,31.4,24.1,97,77,54,29.97,29.71,6,0,7,0.00
2014-4-9,50.4,39.0,23.7,34.2,28.0,21.6,94,67,47,29.97,29.53,7,1,8,0.00
2014-4-10,53.9,46.3,32.6,40.0,27.9,14.7,90,52,24,29.90,29.49,10,1,12,0.01
2014-4-11,44.0,35.1,26.0,38.9,30.4,22.2,99,84,57,30.07,29.90,5,0,5,0.04
2014-4-12,39.4,35.9,30.7,38.1,35.0,29.4,98,96,93,30.10,29.84,16,2,18,0.53
2014-4-13,47.4,37.6,31.6,41.7,35.7,30.8,100,93,79,29.90,29.80,8,0,8,0.00
2014-4-14,31.5,23.2,12.2,30.7,20.7,9.7,97,90,77,30.10,29.71,9,0,9,0.05
2014-4-15,27.4,17.0,3.2,19.0,10.3,0.7,100,76,51,30.28,30.09,6,0,7,0.01
2014-4-16,29.4,22.1,10.2,28.0,19.2,6.2,97,88,74,30.36,30.23,20,3,20,0.00
2014-4-17,34.5,31.3,28.6,34.2,30.6,27.4,99,97,91,30.35,30.16,14,2,16,0.03
2014-4-18,39.7,32.2,22.6,28.5,25.7,21.3,99,78,54,30.47,30.35,6,0,6,0.22
2014-4-19,50.8,39.5,28.1,39.1,29.2,24.2,87,68,48,30.48,30.15,18,4,19,0.01
2014-4-20,60.7,48.4,37.9,49.1,43.2,36.7,99,84,56,30.15,30.01,7,0,7,0.04
2014-4-21,63.8,45.0,33.7,54.0,38.4,29.1,100,81,32,30.02,29.79,8,0,11,0.00
2014-4-22,40.7,35.6,27.6,29.4,27.9,24.5,89,74,61,30.18,29.94,9,1,9,0.00
2014-4-23,49.6,38.4,23.1,30.0,24.1,16.4,95,61,34,30.26,30.10,9,1,11,0.00
2014-4-24,39.9,34.8,32.8,33.4,29.3,17.6,97,83,41,30.14,29.76,23,4,23,0.58
2014-4-25,41.5,36.7,32.0,39.1,34.6,28.9,99,92,78,29.93,29.73,9,1,12,0.26
2014-4-26,44.9,36.6,30.8,33.6,29.1,22.8,96,76,53,30.22,29.93,11,1,14,0.00
2014-4-27,41.0,35.4,29.1,33.1,26.1,19.0,90,69,51,30.22,30.05,23,5,23,0.07
2014-4-28,49.7,43.2,36.8,31.5,25.8,20.5,81,51,38,30.06,29.88,28,8,34,0.01
2014-4-29,43.7,36.2,32.7,36.3,33.4,25.1,99,91,48,29.88,29.67,28,2,31,0.73
2014-4-30,47.7,42.7,36.3,46.2,42.0,36.0,100,98,90,29.74,29.69,11,1,11,0.20
2014-5-1,43.9,40.1,37.4,43.8,39.9,37.1,100,99,98,29.77,29.63,6,0,7,0.07
2014-5-2,49.4,40.7,36.3,40.2,37.7,35.9,100,90,63,29.76,29.66,7,-3,9,0.01
2014-5-3,50.4,42.1,36.6,39.8,34.2,25.4,99,77,39,29.89,29.62,11,1,14,0.09
2014-5-4,50.1,40.1,31.4,34.7,31.2,26.6,96,73,43,30.12,29.89,7,0,8,0.03
2014-5-5,49.4,40.8,32.8,40.5,35.7,29.0,97,83,64,30.17,30.04,7,0,11,0.10
2014-5-6,55.7,45.4,31.5,37.6,32.5,27.1,90,63,44,30.14,30.02,15,3,16,0.00
2014-5-7,51.2,44.3,37.6,45.7,38.3,28.1,95,80,55,30.05,29.90,18,4,20,0.21
2014-5-8,65.9,52.0,43.8,57.4,49.7,41.9,99,92,71,29.97,29.64,11,2,13,0.22
2014-5-9,58.7,52.2,43.6,57.6,49.5,39.1,100,91,73,29.69,29.47,9,1,12,0.07
2014-5-10,65.9,52.3,39.2,41.6,34.7,26.8,95,58,25,29.94,29.69,11,1,11,0.00
2014-5-11,70.3,59.4,46.1,50.2,46.4,36.8,98,65,44,29.95,29.89,9,1,9,0.01
2014-5-12,58.4,52.0,46.8,56.5,50.2,45.3,100,94,64,29.92,29.76,18,3,20,0.60
2014-5-13,58.9,49.4,43.2,58.8,44.8,38.6,100,85,67,30.10,29.67,11,1,11,0.00
2014-5-14,53.9,45.3,34.5,38.7,32.9,27.3,94,65,38,30.21,30.10,10,0,10,0.00
2014-5-15,45.6,38.8,30.2,31.6,29.0,26.3,87,68,52,30.18,30.05,11,1,12,0.00
2014-5-16,45.5,38.4,27.9,29.6,27.0,24.3,92,66,45,30.09,30.04,7,0,8,0.00
2014-5-17,58.2,45.8,29.2,35.0,27.8,21.3,95,55,25,30.07,29.98,7,0,8,0.00
2014-5-18,68.8,54.8,38.2,44.8,37.0,31.6,86,55,28,30.09,30.03,5,0,8,0.00
2014-5-19,61.9,51.2,44.2,48.0,42.3,36.4,98,74,39,30.13,29.97,12,2,15,0.18
2014-5-20,66.8,54.6,46.8,59.3,51.9,46.1,99,91,74,29.97,29.80,15,1,17,1.06
2014-5-21,64.3,58.0,51.0,54.5,49.5,45.4,100,75,52,30.02,29.80,9,1,9,0.00
2014-5-22,60.9,53.4,43.6,47.7,44.7,39.3,92,74,50,30.18,30.01,9,1,9,0.00
2014-5-23,69.7,56.1,38.7,46.5,41.3,36.8,98,62,34,30.27,30.15,11,1,11,0.00
2014-5-24,76.7,64.4,49.0,54.6,48.6,43.3,91,60,33,30.20,30.05,4,0,5,0.00
2014-5-25,77.5,66.8,51.8,54.7,49.3,41.1,94,58,30,30.08,29.92,5,0,5,0.00
2014-5-26,82.0,70.0,60.3,65.8,60.7,51.7,99,74,50,29.93,29.78,5,0,7,0.05
2014-5-27,73.9,65.6,54.9,64.5,53.6,40.4,99,69,44,30.00,29.84,7,0,8,0.01
2014-5-28,76.4,62.6,46.9,49.8,44.8,36.3,81,56,26,30.11,30.00,11,1,11,0.00
2014-5-29,81.5,66.1,47.1,56.2,50.7,45.4,96,63,30,30.16,30.06,6,0,7,0.00
2014-5-30,82.8,70.3,52.8,59.4,54.2,45.9,96,62,29,30.18,30.07,7,0,8,0.00
2014-5-31,81.2,72.9,62.2,59.6,56.2,52.2,78,57,39,30.12,29.94,9,1,11,0.00
2014-6-1,72.0,67.6,63.8,70.7,64.6,56.4,100,91,64,29.94,29.74,7,1,9,0.49
2014-6-2,70.3,65.8,63.1,66.2,64.2,59.7,100,95,81,29.76,29.55,6,1,10,1.05
2014-6-3,68.4,58.7,49.5,59.6,52.5,48.6,98,81,57,29.89,29.56,8,0,12,0.08
2014-6-4,73.7,62.0,48.4,56.1,48.8,41.8,98,66,33,29.94,29.87,8,0,8,0.00
2014-6-5,75.5,62.8,48.3,59.0,50.4,37.9,86,65,50,29.98,29.84,6,0,7,0.00
2014-6-6,75.6,66.7,60.6,61.0,58.0,55.6,96,75,52,29.95,29.87,4,0,4,0.00
2014-6-7,70.6,59.1,51.4,63.6,55.3,49.1,99,88,68,30.02,29.90,7,0,9,0.00
2014-6-8,70.4,59.1,46.3,50.1,44.7,35.1,98,64,29,30.10,30.00,7,0,8,0.00
2014-6-9,65.7,57.3,45.7,51.0,45.2,38.8,88,65,48,30.09,30.00,5,0,6,0.00
2014-6-10,70.6,60.6,46.0,51.7,47.5,41.4,92,65,37,30.03,29.91,7,1,7,0.00
2014-6-11,76.8,64.9,48.1,56.5,51.5,45.1,93,65,40,29.91,29.71,8,1,9,0.00
2014-6-12,61.6,56.3,46.2,59.2,52.0,43.1,100,86,68,29.77,29.61,7,1,10,0.09
2014-6-13,65.6,54.9,45.6,44.6,39.3,29.8,91,60,27,30.03,29.77,8,1,10,0.00
2014-6-14,65.6,55.5,40.9,50.6,44.9,38.3,94,69,53,30.09,29.96,12,2,14,0.00
2014-6-15,69.8,60.0,48.6,65.4,54.4,41.8,97,83,63,30.03,29.65,16,2,23,0.71
2014-6-16,79.3,69.4,56.7,61.2,56.5,50.6,93,67,38,29.93,29.74,5,0,6,0.00
2014-6-17,83.0,72.9,63.2,63.2,59.9,54.5,87,65,45,29.88,29.68,8,1,11,0.00
2014-6-18,72.1,65.5,60.7,62.3,57.4,53.4,83,76,65,30.09,29.82,13,1,14,0.00
2014-6-19,69.9,62.9,54.7,59.1,55.6,49.9,97,78,62,30.16,30.05,14,3,19,0.00
2014-6-20,60.3,56.2,53.4,59.1,54.5,48.4,100,95,69,30.06,29.95,8,1,9,0.48
2014-6-21,67.0,60.3,54.1,64.1,59.2,54.0,100,97,89,29.98,29.87,7,1,8,0.11
2014-6-22,78.0,68.0,60.3,66.5,62.5,59.9,100,84,58,29.93,29.80,7,0,8,0.00
2014-6-23,73.5,66.6,61.4,67.7,64.1,61.1,100,92,73,29.83,29.76,4,0,5,0.28
2014-6-24,77.3,66.2,59.4,68.4,63.3,56.9,100,91,67,29.97,29.80,5,0,11,0.21
2014-6-25,63.3,59.2,54.4,59.1,56.5,52.9,96,91,82,30.07,29.96,5,0,7,0.00
2014-6-26,72.3,64.3,52.3,62.0,58.0,51.3,99,81,64,30.11,29.98,6,1,7,0.00
2014-6-27,75.3,65.7,56.8,68.5,62.4,54.9,99,89,78,30.01,29.88,15,2,15,0.24
2014-6-28,81.7,74.1,67.7,70.7,68.6,66.0,99,84,64,29.92,29.75,12,3,14,0.47
2014-6-29,77.1,70.8,65.0,70.1,64.9,60.6,98,83,59,29.76,29.63,7,1,9,0.06
2014-6-30,81.0,71.4,62.0,68.2,63.8,56.8,100,79,46,29.69,29.42,7,1,7,0.04
2014-7-1,71.7,64.9,59.5,63.1,60.3,56.0,94,86,69,29.66,29.40,5,0,6,0.00
2014-7-2,67.0,57.3,49.7,56.1,47.9,37.1,95,74,41,30.05,29.66,6,0,8,0.00
2014-7-3,70.3,58.7,46.7,54.8,47.7,41.8,95,70,41,30.22,30.05,7,0,8,0.00
2014-7-4,75.6,63.2,46.2,54.5,48.8,43.6,100,64,34,30.31,30.16,3,0,4,0.00
2014-7-5,75.0,68.6,61.1,64.3,58.7,52.4,86,71,59,30.16,29.85,5,1,6,0.00
2014-7-6,72.6,67.4,64.5,70.1,64.8,61.8,98,92,85,29.87,29.55,3,0,6,0.04
2014-7-7,77.6,72.2,65.1,65.2,63.1,59.4,93,74,55,29.64,29.49,7,0,7,0.02
2014-7-8,64.9,57.6,49.7,63.0,55.9,48.5,100,94,87,29.83,29.48,5,0,7,0.16
2014-7-9,65.2,57.4,49.9,54.5,50.6,48.3,100,80,57,30.06,29.82,6,0,10,0.00
2014-7-10,73.1,62.9,46.0,60.8,54.2,44.9,99,75,54,30.15,30.05,6,0,8,0.00
2014-7-11,72.2,67.5,62.7,62.4,61.1,58.6,94,81,64,30.08,29.98,7,1,8,0.00
2014-7-12,77.5,68.3,62.2,69.0,64.2,61.3,99,87,66,30.00,29.81,5,0,7,0.03
2014-7-13,70.7,64.4,57.4,62.1,54.1,47.0,99,72,43,29.85,29.75,7,0,7,0.00
2014-7-14,64.3,55.6,50.8,54.4,51.6,48.8,95,87,61,29.90,29.78,8,0,8,0.12
2014-7-15,59.7,53.7,47.0,52.4,49.9,45.8,99,88,66,30.02,29.88,7,0,9,0.07
2014-7-16,68.6,57.1,45.9,52.8,48.7,45.3,100,76,49,30.06,29.99,7,0,7,0.00
2014-7-17,72.5,62.4,49.6,57.2,53.1,47.1,100,74,49,30.06,30.01,2,0,2,0.00
2014-7-18,74.1,66.0,54.3,61.3,57.4,52.1,94,75,53,30.11,29.99,7,1,9,0.00
2014-7-19,73.0,68.0,62.8,63.4,61.1,58.6,90,79,65,30.01,29.91,7,1,7,0.00
2014-7-20,76.2,70.1,63.1,66.7,63.7,60.1,91,81,69,29.95,29.85,6,1,8,0.00
2014-7-21,81.5,73.9,66.3,72.9,68.5,63.8,93,84,71,29.94,29.87,6,0,7,0.00
2014-7-22,80.5,71.1,56.8,72.8,66.3,55.9,97,86,64,30.07,29.72,10,1,10,0.01
2014-7-23,69.8,60.4,52.2,57.1,54.0,51.4,100,81,53,30.22,30.07,5,0,6,0.00
2014-7-24,73.0,63.5,51.2,58.9,53.6,49.9,97,73,45,30.20,29.95,5,0,6,0.00
2014-7-25,68.2,64.6,61.4,64.0,60.7,55.7,96,87,75,29.96,29.79,5,0,6,0.01
2014-7-26,79.7,70.0,64.0,70.6,62.2,54.8,100,79,45,29.81,29.68,6,0,7,0.06
2014-7-27,67.2,65.9,65.6,63.2,61.5,60.3,89,86,83,29.68,29.66,0,0,1,0.00
2014-8-1,69.4,63.5,59.7,59.1,57.2,55.9,90,81,68,30.10,30.04,1,0,1,0.00
2014-8-2,78.4,66.5,51.1,62.3,57.0,49.7,98,74,47,30.15,30.05,5,0,6,0.00
2014-8-3,82.2,67.5,60.1,68.1,63.5,59.0,99,88,50,30.06,30.01,6,0,6,0.11
2014-8-4,71.0,64.2,60.1,62.2,60.0,57.4,100,87,68,30.10,30.03,9,0,11,0.00
2014-8-5,75.9,65.3,56.2,62.0,58.1,54.6,97,79,54,30.12,30.03,7,0,7,0.00
2014-8-6,78.1,65.9,53.1,59.9,55.6,51.0,99,72,42,30.10,30.04,6,0,7,0.00
2014-8-7,78.7,68.1,56.0,61.7,57.8,53.0,95,72,44,30.14,30.03,6,0,6,0.00
2014-8-8,78.7,68.3,55.8,61.7,57.7,53.7,99,72,44,30.13,30.05,6,0,7,0.00
2014-8-9,79.2,68.9,57.1,62.1,57.6,52.5,97,70,40,30.15,30.06,5,0,6,0.00
2014-8-10,78.7,69.7,56.9,63.3,59.9,55.7,97,73,49,30.10,29.96,6,0,6,0.00
2014-8-11,68.4,61.4,54.0,62.7,59.7,53.3,99,94,80,29.96,29.89,5,0,7,0.38
2014-8-12,68.8,59.3,51.6,54.7,51.8,47.3,99,78,54,29.94,29.89,7,0,11,0.00
2014-8-13,71.3,60.7,46.8,58.8,52.4,44.1,98,76,49,30.12,29.93,6,0,7,0.00
2014-8-14,69.2,55.9,43.0,51.4,46.2,41.6,98,74,40,30.17,30.04,6,0,7,0.00
2014-8-15,74.8,62.8,45.4,64.2,55.4,43.3,98,79,54,30.04,29.81,4,0,4,0.00
2014-8-16,74.3,67.4,56.0,68.4,63.4,54.4,96,88,74,29.97,29.77,7,0,7,0.00
2014-8-17,68.1,58.9,50.1,56.7,53.1,48.8,96,83,61,30.07,29.95,7,1,8,0.00
2014-8-18,64.8,60.7,56.2,64.6,59.8,54.8,100,97,91,29.96,29.67,7,1,8,0.21
2014-8-19,70.0,63.9,59.9,66.1,62.2,58.4,100,94,81,29.74,29.60,5,0,6,0.06
2014-8-20,68.6,62.5,57.2,63.1,60.0,56.5,99,92,79,29.95,29.74,6,0,7,0.00
2014-8-21,68.5,64.3,60.2,65.1,62.6,59.5,100,94,87,29.96,29.89,8,1,9,0.00
2014-8-22,72.3,66.9,62.7,71.5,66.6,62.0,100,99,96,29.99,29.89,6,0,6,0.05
2014-8-23,72.2,68.9,66.0,70.2,68.2,64.8,100,98,93,30.03,29.97,8,1,12,0.00
2014-8-24,74.4,68.6,64.8,69.5,66.6,64.2,99,94,84,30.03,29.91,13,2,15,0.00
2014-8-25,79.3,71.6,64.9,71.6,67.5,60.1,100,88,72,29.97,29.84,9,0,12,0.78
2014-8-26,66.8,60.8,53.0,59.9,53.7,50.5,94,78,62,30.14,29.92,6,0,6,0.00
2014-8-27,67.5,58.4,50.0,56.0,52.5,47.5,100,82,57,30.20,30.13,6,0,6,0.05
2014-8-28,70.4,59.6,46.7,61.4,53.4,45.8,99,82,49,30.18,30.01,8,1,8,0.00
2014-8-29,69.2,62.6,57.5,66.7,61.4,56.3,100,96,88,30.02,29.77,8,1,12,0.46
2014-8-30,67.0,62.1,56.2,66.6,61.8,56.1,100,99,96,29.89,29.72,5,0,6,0.15
2014-8-31,70.4,63.2,53.2,66.7,61.1,53.1,100,94,83,29.94,29.74,8,2,9,0.01
2014-9-1,68.3,64.4,57.5,67.2,62.2,56.2,100,93,75,29.74,29.56,10,0,10,0.26
2014-9-2,71.5,61.6,53.3,59.6,55.1,51.1,100,81,54,29.88,29.74,5,0,5,0.01
2014-9-3,71.4,63.3,53.3,63.2,58.6,51.3,99,85,67,29.93,29.76,7,1,9,1.11
2014-9-4,66.5,63.0,60.9,66.4,62.8,60.4,100,100,98,29.83,29.72,8,0,11,0.01
2014-9-6,67.7,61.1,51.8,52.5,48.1,43.8,94,64,45,30.14,30.10,6,0,6,0.00
2014-9-7,73.0,62.8,51.9,56.3,52.6,47.8,93,72,44,30.14,30.06,4,0,5,0.00
2014-9-8,68.4,62.8,58.0,57.9,55.8,53.3,88,79,61,30.06,29.91,7,1,11,0.00
2014-9-9,73.6,65.3,56.3,65.7,60.6,54.6,95,85,71,29.94,29.79,6,0,6,0.00
2014-9-10,65.5,50.3,38.2,63.9,49.8,37.1,100,98,94,29.98,29.56,10,1,13,2.23
2014-9-11,48.4,41.4,34.7,41.1,38.0,33.6,97,88,70,30.40,29.97,7,0,8,0.01
2014-9-12,48.0,39.7,32.9,41.7,37.9,32.1,100,94,76,30.47,30.36,3,0,5,0.15
2014-9-13,51.2,44.3,35.3,44.8,39.3,35.0,100,84,55,30.38,30.28,5,0,5,0.02
2014-9-14,58.7,51.0,44.7,49.0,44.1,39.8,93,78,58,30.28,30.05,6,1,7,0.00
2014-9-15,57.1,47.6,40.1,48.1,42.5,38.6,100,84,59,30.19,30.12,5,0,6,0.00
2014-9-16,62.8,51.1,39.0,47.5,42.7,37.4,95,75,51,30.19,30.03,8,0,8,0.00
2014-9-17,68.0,54.2,44.6,53.7,46.6,41.3,92,77,50,30.10,29.92,6,0,6,0.00
2014-9-18,53.5,45.3,36.9,49.0,42.1,35.3,96,89,79,30.23,30.10,7,1,7,0.00
2014-9-19,65.6,57.3,47.4,57.8,52.3,46.3,100,85,68,30.16,29.70,11,2,13,0.00
2014-9-20,71.2,63.9,54.4,63.7,59.0,52.0,95,85,68,29.70,29.62,9,0,9,0.02
2014-9-21,54.2,47.1,39.6,52.3,44.5,38.5,99,91,74,30.20,29.62,8,0,10,0.58
2014-9-22,63.4,51.3,38.6,52.2,46.9,37.9,100,86,64,30.25,30.16,4,0,5,0.00
2014-9-23,71.0,58.1,47.3,57.2,51.9,46.7,100,82,51,30.28,30.20,2,0,4,0.00
2014-9-24,67.2,58.9,50.6,55.9,52.7,48.3,98,81,59,30.31,30.24,9,1,9,0.07
2014-9-25,68.2,59.9,54.8,59.7,55.9,52.9,99,87,68,30.28,30.22,5,0,5,0.01
2014-9-26,73.9,61.6,49.5,58.1,52.5,44.6,99,76,39,30.28,30.20,6,0,8,0.00
2014-9-27,74.5,63.8,53.5,61.8,57.1,50.8,96,80,60,30.24,30.12,2,0,5,0.00
2014-9-28,78.2,65.3,53.7,63.9,58.7,53.1,99,81,57,30.16,29.98,4,0,4,0.00
2014-9-29,61.8,46.9,37.7,58.1,44.7,35.8,98,92,83,30.17,29.96,7,0,9,0.10
2014-9-30,55.3,44.5,37.7,46.6,41.0,36.4,97,88,70,30.18,30.06,9,1,12,0.00
2014-10-1,55.3,49.9,44.0,52.7,47.8,43.3,99,93,80,30.07,29.88,12,3,12,0.00
2014-10-2,61.0,55.8,51.4,57.4,54.4,51.1,100,95,88,29.91,29.55,6,0,8,0.90
2014-10-3,56.0,45.8,34.4,55.9,44.7,33.9,100,96,77,29.61,29.46,7,0,8,0.45
2014-10-4,40.0,37.0,33.3,39.6,36.3,33.0,100,97,91,29.62,29.51,6,0,7,0.18
2014-10-5,43.7,37.9,34.7,35.9,33.1,29.9,95,83,66,29.61,29.51,4,0,6,0.00
2014-10-6,49.6,42.8,35.4,39.4,34.4,28.9,95,74,48,29.53,29.43,5,1,6,0.00
2014-10-7,54.5,45.9,39.8,41.4,35.8,30.5,93,69,47,29.76,29.44,8,0,9,0.00
2014-10-8,46.9,40.8,36.0,32.6,30.1,26.5,82,67,46,30.01,29.75,8,0,11,0.00
2014-10-9,47.5,39.3,32.2,36.9,33.6,29.8,94,80,65,30.22,30.01,4,0,6,0.00
2014-10-10,51.4,40.6,31.4,39.3,33.7,30.4,97,78,52,30.28,30.20,5,0,6,0.00
2014-10-11,49.9,41.2,31.9,36.6,33.3,30.0,95,75,52,30.29,30.12,6,0,6,0.00
2014-10-12,55.9,47.8,39.9,43.5,37.8,33.3,86,69,49,30.12,29.91,10,2,10,0.00
2014-10-13,50.7,48.1,46.0,49.7,47.2,43.3,100,97,86,29.92,29.74,6,0,8,0.62
2014-10-14,48.0,46.6,45.1,47.7,45.5,43.1,100,96,90,29.93,29.69,13,1,13,0.50
2014-10-15,52.2,46.1,42.0,46.3,43.0,40.6,97,89,79,29.97,29.87,8,1,15,0.00
2014-10-16,50.5,44.6,38.7,47.5,43.6,37.9,100,96,88,29.92,29.56,7,0,7,0.00
2014-10-17,46.8,43.9,39.4,46.7,43.3,38.1,100,98,94,29.97,29.48,8,0,10,0.16
2014-10-18,42.0,36.4,29.7,38.5,32.9,28.5,97,88,70,30.22,29.97,6,0,8,0.02
2014-10-19,50.4,41.6,30.2,45.4,38.4,29.3,98,89,81,30.19,29.79,6,1,7,0.00
2014-10-20,48.2,43.4,39.2,45.3,42.0,37.7,99,95,84,30.12,29.79,7,0,7,0.03
2014-10-21,45.8,39.3,33.5,38.3,35.4,28.8,95,86,71,30.35,30.12,5,0,7,0.01
2014-10-22,52.3,40.3,28.9,38.8,33.0,27.2,100,78,45,30.41,30.22,11,1,11,0.00
2014-10-23,44.5,43.0,40.6,44.4,41.5,37.6,100,95,85,30.22,30.04,8,0,8,0.19
2014-10-24,58.4,49.0,42.4,52.0,46.4,42.3,100,92,67,30.05,29.81,4,0,5,0.00
2014-10-25,57.1,51.2,42.9,51.2,36.7,24.6,97,62,30,29.94,29.79,8,1,13,0.00
2014-10-26,53.9,43.8,33.5,37.9,31.4,28.8,92,63,40,30.01,29.84,6,0,7,0.00
2014-10-27,53.6,48.3,42.1,46.7,42.3,31.1,94,81,51,29.84,29.57,9,2,11,0.07
2014-10-28,47.6,43.2,35.9,46.1,40.1,31.9,98,89,78,29.80,29.56,8,1,14,0.03
2014-10-29,42.4,37.6,34.5,38.0,34.6,32.4,97,89,80,30.14,29.79,7,0,8,0.02
2014-10-30,40.0,37.1,31.9,35.1,33.4,30.9,97,87,79,30.12,30.07,5,0,6,0.01
2014-10-31,32.7,28.6,23.7,31.1,24.1,19.4,97,83,67,30.55,30.12,11,1,13,0.07
2014-11-1,38.4,29.4,18.7,27.5,22.9,17.0,95,78,52,30.57,30.38,6,0,7,0.03
2014-11-2,46.4,39.1,31.7,30.3,27.7,25.0,83,65,46,30.38,30.06,9,1,10,0.00
2014-11-3,49.1,42.5,35.9,43.1,34.9,26.6,96,75,61,30.06,29.77,6,0,7,0.05
2014-11-4,45.9,39.1,33.3,45.6,36.7,30.5,100,91,79,29.91,29.70,8,0,11,0.08
2014-11-5,39.0,35.3,32.3,32.9,29.9,25.5,98,81,66,30.07,29.91,9,0,10,0.02
2014-11-6,32.3,31.5,30.6,32.0,30.3,29.3,100,95,91,30.25,29.98,2,0,4,0.03
2014-11-7,33.7,32.1,30.0,33.0,31.2,29.5,99,97,92,30.23,29.69,8,1,10,0.09
2014-11-8,33.5,31.0,26.6,33.0,27.0,19.3,99,85,68,29.88,29.67,11,1,11,0.13
2014-11-9,33.2,27.7,18.6,30.8,22.6,14.4,97,82,52,29.94,29.71,6,0,8,0.06
2014-11-10,29.2,24.5,19.2,28.3,22.5,16.1,97,92,83,29.97,29.74,13,1,16,0.00
2014-11-11,29.1,24.7,20.8,28.3,23.6,19.1,97,95,93,30.12,29.81,7,0,9,0.00
2014-11-12,24.5,21.1,17.6,21.8,19.4,15.9,95,93,88,30.28,30.12,0,0,0,0.00
2014-11-13,24.6,19.7,14.7,21.8,17.8,13.1,95,92,88,30.31,30.25,1,0,2,0.00
2014-11-14,21.8,17.8,10.7,18.2,15.1,8.4,93,89,81,30.38,30.31,3,0,3,0.00
2014-11-15,19.5,12.9,4.4,14.5,9.8,2.0,93,87,74,30.37,30.21,6,0,6,0.01
2014-11-16,20.7,16.5,9.7,17.7,13.9,5.8,93,89,81,30.21,29.82,4,1,6,0.00
2014-11-17,14.0,9.0,5.0,9.0,5.5,2.6,92,85,75,29.82,29.75,9,0,10,0.00
2014-11-18,13.0,9.7,7.4,6.9,5.3,3.1,89,82,71,30.01,29.80,9,1,9,0.00
2014-11-19,16.7,10.8,9.0,12.9,8.1,5.7,90,88,85,29.95,29.74,6,0,7,0.00
2014-11-20,11.9,7.9,3.8,6.3,2.6,0.0,87,78,68,30.33,30.07,8,0,8,0.00
2014-11-21,25.1,17.1,1.3,20.7,9.9,-1.8,89,73,60,30.39,30.01,5,2,6,0.00
2014-11-22,33.9,30.7,25.2,33.8,29.3,20.8,100,95,83,30.01,29.74,6,1,7,0.00
2014-11-23,43.3,40.8,34.0,43.2,40.7,33.6,100,100,99,29.74,29.20,7,1,10,0.46
2014-11-24,39.4,29.3,20.2,39.3,28.8,18.8,100,98,93,29.72,29.07,8,1,11,0.11
2014-11-25,20.4,16.5,5.4,19.4,14.0,3.1,100,90,81,30.24,29.72,6,0,6,0.00
2014-11-26,22.6,16.8,5.1,20.0,14.9,2.6,95,92,88,30.32,30.22,4,0,5,0.00
2014-11-27,16.6,7.1,-2.6,99.9,14.1,-2.6,91,85,73,30.46,30.32,5,0,9,0.00
2014-11-28,14.8,9.3,-2.8,99.9,15.9,-2.0,93,90,86,30.43,29.94,6,1,7,0.00
2014-11-29,32.8,26.8,14.6,32.3,26.2,13.0,99,98,93,29.94,29.51,8,1,9,0.00
2014-11-30,31.5,17.1,2.5,31.2,14.0,-1.2,99,87,77,30.36,29.55,8,1,10,0.00
2014-12-1,5.3,-0.3,-7.6,99.9,46.7,-5.5,92,79,67,30.79,30.36,6,0,8,0.00
2014-12-2,19.0,13.1,-4.9,99.9,22.0,-2.4,100,90,79,30.67,30.00,11,2,14,0.00
2014-12-3,17.6,13.6,8.2,15.3,9.9,5.0,92,85,73,30.40,29.98,6,0,12,0.00
2014-12-4,20.6,11.7,-3.0,99.9,18.0,-2.6,91,77,57,30.51,30.33,9,1,10,0.00
2014-12-5,29.0,24.5,16.5,27.1,22.8,13.2,97,93,86,30.42,30.23,4,0,5,0.00
2014-12-6,28.6,16.8,8.3,21.6,12.6,6.4,96,84,59,30.78,30.42,7,0,8,0.06
2014-12-7,29.6,24.4,15.1,25.1,20.1,11.7,93,84,76,30.76,30.20,13,2,14,0.00
2014-12-8,31.7,28.7,26.5,31.4,28.0,24.8,99,97,93,30.22,29.98,7,0,9,0.00
2014-12-9,28.8,22.4,17.2,28.3,20.9,15.9,98,94,90,30.54,30.22,7,0,7,0.00
2014-12-10,22.8,16.4,8.1,19.3,14.8,5.8,99,93,85,30.54,30.36,4,0,5,0.00
2014-12-11,26.0,14.9,3.7,21.8,12.8,1.5,100,91,83,30.37,30.26,2,0,6,0.01
2014-12-12,30.0,25.9,20.3,29.4,25.3,19.4,99,97,96,30.31,30.18,3,0,4,0.00
2014-12-13,37.7,34.2,27.8,37.7,34.2,27.5,100,100,99,30.18,30.02,4,0,6,0.23
2014-12-14,41.7,38.8,36.8,41.5,38.8,36.8,100,100,100,30.03,29.93,2,0,2,0.10
2014-12-15,43.3,39.4,36.7,43.2,39.3,36.7,100,100,100,29.93,29.76,5,0,6,0.13
2014-12-16,37.8,26.6,20.1,37.8,25.9,18.3,100,97,93,30.13,29.75,6,0,7,0.08
2014-12-17,22.1,19.6,15.9,20.0,17.8,14.0,96,92,88,30.35,30.13,6,0,7,0.00
2014-12-18,26.1,19.4,8.0,21.7,17.0,5.9,95,90,79,30.39,30.32,7,0,7,0.06
2014-12-19,24.5,13.9,4.5,20.7,11.7,2.3,100,91,83,30.43,30.35,5,0,5,0.00
2014-12-20,27.1,23.6,18.4,26.1,22.6,17.3,97,96,95,30.35,30.23,5,0,5,0.00
2014-12-21,32.0,28.9,25.9,31.5,28.2,24.8,98,97,95,30.23,29.94,11,2,12,0.00
2014-12-22,32.3,31.1,30.1,32.0,30.5,29.3,99,98,96,29.94,29.81,13,3,15,0.00
2014-12-23,32.2,30.7,30.1,31.8,30.2,29.3,99,98,97,29.83,29.71,11,1,12,0.00
2014-12-24,31.9,30.1,28.7,31.5,29.6,27.8,99,98,96,29.83,29.53,4,0,4,0.00
2014-12-25,31.0,29.5,28.7,29.7,28.6,27.6,99,96,93,29.99,29.56,4,0,4,0.00
2014-12-26,31.0,29.4,28.1,30.5,28.9,27.6,99,98,97,30.11,29.96,4,0,4,0.00
2014-12-27,30.1,25.4,11.8,28.9,24.4,10.0,99,96,91,30.07,29.89,4,0,5,0.00
2014-12-28,20.5,10.4,-0.2,99.9,10.0,-2.1,94,89,81,30.39,30.05,6,0,6,0.00
2014-12-29,9.9,1.6,-6.1,99.9,55.9,-2.9,90,86,77,30.66,30.39,5,0,5,0.00
2014-12-30,2.3,-5.7,-14.1,99.9,81.2,-4.2,92,85,80,30.75,30.60,5,0,6,0.00
2014-12-31,5.2,-3.4,-11.7,99.9,55.1,-3.3,87,85,82,30.60,29.97,6,1,7,0.00
2015-1-1,21.5,11.8,2.8,18.2,8.9,0.1,91,88,80,30.18,29.84,7,0,10,0.00
2015-1-2,16.5,8.1,-1.7,99.9,19.0,-3.7,88,79,65,30.37,30.18,4,0,6,0.00